createdAt,value
2023-05-17T04:26:32.266Z,9.50
2023-05-17T04:29:00.397Z,9.50
2023-05-17T04:31:28.439Z,9.60
2023-05-17T04:33:56.624Z,9.60
2023-05-17T04:36:24.729Z,9.70
2023-05-17T04:38:52.810Z,9.80
2023-05-17T04:41:20.901Z,9.80
2023-05-17T04:43:50.783Z,9.90
2023-05-17T04:46:18.857Z,10.00
2023-05-17T04:48:47.261Z,10.10
2023-05-17T04:51:15.500Z,10.20
2023-05-17T04:53:43.559Z,10.20
2023-05-17T04:56:11.727Z,10.30
2023-05-17T04:58:39.779Z,10.40
2023-05-17T05:01:09.310Z,10.40
2023-05-17T05:03:37.751Z,10.40
2023-05-17T05:06:06.302Z,10.50
2023-05-17T05:08:35.539Z,10.50
2023-05-17T05:11:03.649Z,10.50
2023-05-17T05:13:31.723Z,10.60
2023-05-17T05:15:59.767Z,10.60
2023-05-17T05:18:29.287Z,10.60
2023-05-17T05:20:58.048Z,10.60
2023-05-17T05:23:26.364Z,10.70
2023-05-17T05:25:54.502Z,10.80
2023-05-17T05:28:22.577Z,10.80
2023-05-17T05:30:50.682Z,10.80
2023-05-17T05:33:18.936Z,10.90
2023-05-17T05:35:48.587Z,10.90
2023-05-17T05:38:16.680Z,11.00
2023-05-17T05:40:46.907Z,11.00
2023-05-17T05:43:15.113Z,11.00
2023-05-17T05:45:46.036Z,11.10
2023-05-17T05:48:14.316Z,11.10
2023-05-17T05:50:43.961Z,11.10
2023-05-17T05:53:19.300Z,11.10
2023-05-17T05:55:47.675Z,11.20
2023-05-17T05:58:15.798Z,11.20
2023-05-17T06:00:43.882Z,11.30
2023-05-17T06:03:12.057Z,11.30
2023-05-17T06:05:40.492Z,11.40
2023-05-17T06:08:08.748Z,11.50
2023-05-17T06:10:38.215Z,11.50
2023-05-17T06:13:06.371Z,11.60
2023-05-17T06:15:34.507Z,11.60
2023-05-17T06:18:02.774Z,11.60
2023-05-17T06:20:31.163Z,11.70
2023-05-17T06:22:59.505Z,11.80
2023-05-17T06:25:27.645Z,11.80
2023-05-17T06:27:57.072Z,11.90
2023-05-17T06:30:27.745Z,12.10
2023-05-17T06:32:56.420Z,12.30
2023-05-17T06:35:24.632Z,12.40
2023-05-17T06:37:52.723Z,12.60
2023-05-17T06:40:21.008Z,12.80
2023-05-17T06:42:49.275Z,12.80
2023-05-17T06:45:18.721Z,12.90
2023-05-17T06:47:46.952Z,13.00
2023-05-17T06:50:16.599Z,13.10
2023-05-17T06:52:44.677Z,13.50
2023-05-17T06:55:12.816Z,13.60
2023-05-17T06:57:40.900Z,13.70
2023-05-17T07:00:11.258Z,13.80
2023-05-17T07:02:40.986Z,13.90
2023-05-17T07:05:09.744Z,14.10
2023-05-17T07:07:37.826Z,14.20
2023-05-17T07:10:07.157Z,14.20
2023-05-17T07:12:38.248Z,14.20
2023-05-17T07:15:07.333Z,14.30
2023-05-17T07:17:35.523Z,14.40
2023-05-17T07:20:06.373Z,14.50
2023-05-17T07:22:34.670Z,14.70
2023-05-17T07:25:03.085Z,14.80
2023-05-17T07:27:31.127Z,14.80
2023-05-17T07:29:59.222Z,14.70
2023-05-17T07:32:27.345Z,14.70
2023-05-17T07:34:55.673Z,14.90
2023-05-17T07:37:25.166Z,15.00
2023-05-17T07:39:53.240Z,15.20
2023-05-17T07:42:22.335Z,15.30
2023-05-17T07:44:50.438Z,15.40
2023-05-17T07:47:18.576Z,15.50
2023-05-17T07:49:46.916Z,15.70
2023-05-17T07:52:14.986Z,15.80
2023-05-17T07:54:44.456Z,15.90
2023-05-17T07:57:12.505Z,16.00
2023-05-17T07:59:40.702Z,16.20
2023-05-17T08:02:09.870Z,16.30
2023-05-17T08:04:38.425Z,16.50
2023-05-17T08:07:06.714Z,16.60
2023-05-17T08:09:34.804Z,16.80
2023-05-17T08:12:06.361Z,16.90
2023-05-17T08:14:34.507Z,16.90
2023-05-17T08:17:02.556Z,17.00
2023-05-17T08:19:30.897Z,17.00
2023-05-17T08:21:59.449Z,17.00
2023-05-17T08:24:27.518Z,17.00
2023-05-17T08:26:56.540Z,16.90
2023-05-17T08:29:25.988Z,17.00
2023-05-17T08:31:55.485Z,17.00
2023-05-17T08:34:26.356Z,17.20
2023-05-17T08:36:55.693Z,17.40
2023-05-17T08:39:24.006Z,17.40
2023-05-17T08:41:52.097Z,17.40
2023-05-17T08:44:21.748Z,17.50
2023-05-17T08:46:53.775Z,17.50
2023-05-17T08:49:25.897Z,17.40
2023-05-17T08:51:56.809Z,17.20
2023-05-17T08:54:24.901Z,17.10
2023-05-17T08:56:56.893Z,17.10
2023-05-17T08:59:26.569Z,17.00
2023-05-17T09:01:56.305Z,17.10
2023-05-17T09:04:25.086Z,17.30
2023-05-17T09:06:53.414Z,17.40
2023-05-17T09:09:22.471Z,17.30
2023-05-17T09:11:51.450Z,17.30
2023-05-17T09:14:19.937Z,17.20
2023-05-17T09:16:48.438Z,16.90
2023-05-17T09:19:18.625Z,16.80
2023-05-17T09:21:47.520Z,17.00
2023-05-17T09:24:15.804Z,17.20
2023-05-17T09:26:45.481Z,17.40
2023-05-17T09:29:15.380Z,17.60
2023-05-17T09:31:44.356Z,17.50
2023-05-17T09:34:12.975Z,17.50
2023-05-17T09:36:44.643Z,17.70
2023-05-17T09:39:14.714Z,18.20
2023-05-17T09:41:46.530Z,18.50
2023-05-17T09:44:15.627Z,18.90
2023-05-17T09:46:46.140Z,19.20
2023-05-17T09:49:14.418Z,19.30
2023-05-17T09:51:44.948Z,19.30
2023-05-17T09:54:13.991Z,19.30
2023-05-17T09:56:43.151Z,19.40
2023-05-17T09:59:16.037Z,19.40
2023-05-17T10:01:46.118Z,19.70
2023-05-17T10:04:20.382Z,20.00
2023-05-17T10:06:52.707Z,20.30
2023-05-17T10:09:24.086Z,20.50
2023-05-17T10:11:56.572Z,20.60
2023-05-17T10:14:40.274Z,20.30
2023-05-17T10:17:09.787Z,20.20
2023-05-17T10:19:39.102Z,20.50
2023-05-17T10:22:21.628Z,20.70
2023-05-17T10:24:52.308Z,20.70
2023-05-17T10:27:21.687Z,20.60
2023-05-17T10:29:51.079Z,20.90
2023-05-17T10:32:23.380Z,21.20
2023-05-17T10:35:06.072Z,21.40
2023-05-17T10:37:41.966Z,21.40
2023-05-17T10:40:14.070Z,21.60
2023-05-17T10:42:46.235Z,21.70
2023-05-17T10:45:14.914Z,21.60
2023-05-17T10:47:46.285Z,21.70
2023-05-17T10:50:25.781Z,21.80
2023-05-17T10:52:56.605Z,22.20
2023-05-17T10:55:26.322Z,22.30
2023-05-17T10:58:17.207Z,22.30
2023-05-17T11:00:47.223Z,22.40
2023-05-17T11:03:17.496Z,22.60
2023-05-17T11:05:46.976Z,22.60
2023-05-17T11:08:19.726Z,22.50
2023-05-17T11:11:12.406Z,22.60
2023-05-17T11:13:47.545Z,22.40
2023-05-17T11:16:18.558Z,22.60
2023-05-17T11:18:51.067Z,22.80
2023-05-17T11:21:20.119Z,23.20
2023-05-17T11:23:54.681Z,23.30
2023-05-17T11:26:24.888Z,23.10
2023-05-17T11:29:02.543Z,23.00
2023-05-17T11:31:32.210Z,22.50
2023-05-17T11:34:01.298Z,22.30
2023-05-17T11:36:29.491Z,22.60
2023-05-17T11:39:15.678Z,22.80
2023-05-17T11:41:50.489Z,23.00
2023-05-17T11:44:25.243Z,23.10
2023-05-17T11:46:54.359Z,23.20
2023-05-17T11:49:33.898Z,23.30
2023-05-17T11:52:04.931Z,23.40
2023-05-17T11:54:35.284Z,23.30
2023-05-17T11:57:04.722Z,23.50
2023-05-17T11:59:39.844Z,23.50
2023-05-17T12:02:08.141Z,23.30
2023-05-17T12:04:38.357Z,23.30
2023-05-17T12:07:09.328Z,23.40
2023-05-17T12:09:40.336Z,23.40
2023-05-17T12:12:09.725Z,23.30
2023-05-17T12:14:37.984Z,23.10
2023-05-17T12:17:10.251Z,23.10
2023-05-17T12:19:38.511Z,23.40
2023-05-17T12:22:12.622Z,23.50
2023-05-17T12:24:43.839Z,23.50
2023-05-17T12:27:12.287Z,23.60
2023-05-17T12:29:40.824Z,23.50
2023-05-17T12:32:11.384Z,23.40
2023-05-17T12:34:40.833Z,23.20
2023-05-17T12:37:11.031Z,23.20
2023-05-17T12:39:39.470Z,23.20
2023-05-17T12:42:10.300Z,22.90
2023-05-17T12:44:38.505Z,23.10
2023-05-17T12:47:06.820Z,23.30
2023-05-17T12:49:40.071Z,23.10
2023-05-17T12:52:08.482Z,23.20
2023-05-17T12:54:36.844Z,23.00
2023-05-17T12:57:16.063Z,23.00
2023-05-17T12:59:51.038Z,23.20
2023-05-17T13:02:21.303Z,23.40
2023-05-17T13:04:49.553Z,23.60
2023-05-17T13:07:24.452Z,23.40
2023-05-17T13:09:52.935Z,23.50
2023-05-17T13:12:23.942Z,23.30
2023-05-17T13:14:53.342Z,23.20
2023-05-17T13:17:26.939Z,23.10
2023-05-17T13:19:57.384Z,23.10
2023-05-17T13:22:26.593Z,23.00
2023-05-17T13:24:55.301Z,22.90
2023-05-17T13:27:24.754Z,23.10
2023-05-17T13:29:52.880Z,23.10
2023-05-17T13:32:22.358Z,23.10
2023-05-17T13:34:50.612Z,22.90
2023-05-17T13:37:18.758Z,22.90
2023-05-17T13:39:46.833Z,22.80
2023-05-17T13:42:15.486Z,22.70
2023-05-17T13:44:44.926Z,22.80
2023-05-17T13:47:13.003Z,22.80
2023-05-17T13:49:41.237Z,23.00
2023-05-17T13:52:09.602Z,22.90
2023-05-17T13:54:39.285Z,22.90
2023-05-17T13:57:08.402Z,22.90
2023-05-17T13:59:36.744Z,22.70
2023-05-17T14:02:06.868Z,22.70
2023-05-17T14:04:35.160Z,22.80
2023-05-17T14:07:03.882Z,22.70
2023-05-17T14:09:34.313Z,22.50
2023-05-17T14:12:02.751Z,22.40
2023-05-17T14:14:31.818Z,22.20
2023-05-17T14:17:01.560Z,22.10
2023-05-17T14:19:31.694Z,22.20
2023-05-17T14:22:00.001Z,22.10
2023-05-17T14:24:28.154Z,22.00
2023-05-17T14:26:57.702Z,21.90
2023-05-17T14:29:25.948Z,22.10
2023-05-17T14:31:53.991Z,22.10
2023-05-17T14:34:25.641Z,22.00
2023-05-17T14:36:55.126Z,21.90
2023-05-17T14:39:23.223Z,21.80
2023-05-17T14:41:51.834Z,21.70
2023-05-17T14:44:19.893Z,21.70
2023-05-17T14:46:47.956Z,21.70
2023-05-17T14:49:16.233Z,21.50
2023-05-17T14:51:45.025Z,21.30
2023-05-17T14:54:14.492Z,21.30
2023-05-17T14:56:43.306Z,21.20
2023-05-17T14:59:11.516Z,21.10
2023-05-17T15:01:39.595Z,21.10
2023-05-17T15:04:07.837Z,21.20
2023-05-17T15:06:36.268Z,21.10
2023-05-17T15:09:04.718Z,21.00
2023-05-17T15:11:34.278Z,20.90
2023-05-17T15:14:02.463Z,20.80
2023-05-17T15:16:30.787Z,20.70
2023-05-17T15:18:59.265Z,20.70
2023-05-17T15:21:27.694Z,20.70
2023-05-17T15:23:55.988Z,20.60
2023-05-17T15:26:24.196Z,20.60
2023-05-17T15:28:53.704Z,20.60
2023-05-17T15:31:23.824Z,20.50
2023-05-17T15:33:52.216Z,20.40
2023-05-17T15:36:20.309Z,20.30
2023-05-17T15:38:48.619Z,20.20
2023-05-17T15:41:19.079Z,20.00
2023-05-17T15:43:47.180Z,19.90
2023-05-17T15:46:17.230Z,19.70
2023-05-17T15:48:45.402Z,19.70
2023-05-17T15:51:13.542Z,19.80
2023-05-17T15:53:41.653Z,19.70
2023-05-17T15:56:10.232Z,19.70
2023-05-17T15:58:38.652Z,19.70
2023-05-17T16:01:07.150Z,19.70
2023-05-17T16:03:36.895Z,19.70
2023-05-17T16:06:06.264Z,19.70
2023-05-17T16:08:34.650Z,19.70
2023-05-17T16:11:02.914Z,19.60
2023-05-17T16:13:31.350Z,19.40
2023-05-17T16:15:59.961Z,19.30
2023-05-17T16:18:28.480Z,19.30
2023-05-17T16:21:03.228Z,19.10
2023-05-17T16:23:31.597Z,19.10
2023-05-17T16:26:00.014Z,19.20
2023-05-17T16:28:28.098Z,19.10
2023-05-17T16:30:56.378Z,19.10
2023-05-17T16:33:24.568Z,19.00
2023-05-17T16:35:52.927Z,19.00
2023-05-17T16:38:22.870Z,19.10
2023-05-17T16:40:50.965Z,19.10
2023-05-17T16:43:19.074Z,18.90
2023-05-17T16:45:47.712Z,18.70
2023-05-17T16:48:16.354Z,18.60
2023-05-17T16:50:44.579Z,18.40
2023-05-17T16:53:13.109Z,18.40
2023-05-17T16:55:42.861Z,18.30
2023-05-17T16:58:13.722Z,18.40
2023-05-17T17:00:42.122Z,18.30
2023-05-17T17:03:13.805Z,18.30
2023-05-17T17:05:42.442Z,18.20
2023-05-17T17:08:10.556Z,18.20
2023-05-17T17:10:38.658Z,18.20
2023-05-17T17:13:08.269Z,18.00
2023-05-17T17:15:36.352Z,18.10
2023-05-17T17:18:05.960Z,18.00
2023-05-17T17:20:34.302Z,18.00
2023-05-17T17:23:02.357Z,18.00
2023-05-17T17:25:30.502Z,18.10
2023-05-17T17:27:58.580Z,18.20
2023-05-17T17:30:28.333Z,17.90
2023-05-17T17:32:56.904Z,18.00
2023-05-17T17:35:25.086Z,18.00
2023-05-17T17:37:54.079Z,18.00
2023-05-17T17:40:22.307Z,17.80
2023-05-17T17:42:50.548Z,17.70
2023-05-17T17:45:18.713Z,17.60
2023-05-17T17:47:48.189Z,17.40
2023-05-17T17:50:16.308Z,17.30
2023-05-17T17:52:44.904Z,17.20
2023-05-17T17:55:13.610Z,17.20
2023-05-17T17:57:41.714Z,17.10
2023-05-17T18:00:11.916Z,17.20
2023-05-17T18:02:40.295Z,16.90
2023-05-17T18:05:11.441Z,16.90
2023-05-17T18:07:39.703Z,16.90
2023-05-17T18:10:09.115Z,16.90
2023-05-17T18:12:38.352Z,16.80
2023-05-17T18:15:06.958Z,16.70
2023-05-17T18:17:35.114Z,16.70
2023-05-17T18:20:03.276Z,16.70
2023-05-17T18:22:32.999Z,16.60
2023-05-17T18:25:01.184Z,16.60
2023-05-17T18:27:29.254Z,16.60
2023-05-17T18:29:57.341Z,16.50
2023-05-17T18:32:25.528Z,16.50
2023-05-17T18:34:54.983Z,16.30
2023-05-17T18:37:23.159Z,16.20
2023-05-17T18:39:53.956Z,16.20
2023-05-17T18:42:24.810Z,16.10
2023-05-17T18:44:53.503Z,16.00
2023-05-17T18:47:23.279Z,16.00
2023-05-17T18:49:52.178Z,16.10
2023-05-17T18:52:20.232Z,15.90
